createdAt,value
2023-02-25T00:01:44.468Z,99383.28
2023-02-25T00:04:16.664Z,99382.63
2023-02-25T00:06:46.464Z,99383.81
2023-02-25T00:09:14.513Z,99391.03
2023-02-25T00:11:43.857Z,99382.81
2023-02-25T00:14:11.866Z,99384.81
2023-02-25T00:16:39.900Z,99383.16
2023-02-25T00:19:07.955Z,99381.44
2023-02-25T00:21:35.918Z,99387.69
2023-02-25T00:24:15.651Z,99385.00
2023-02-25T00:26:46.008Z,99377.75
2023-02-25T00:29:15.619Z,99383.47
2023-02-25T00:31:43.894Z,99382.28
2023-02-25T00:34:12.112Z,99384.81
2023-02-25T00:36:40.811Z,99378.59
2023-02-25T00:39:09.351Z,99382.97
2023-02-25T00:41:37.576Z,99378.94
2023-02-25T00:44:07.925Z,99380.78
2023-02-25T00:46:36.581Z,99373.38
2023-02-25T00:49:04.674Z,99376.56
2023-02-25T00:51:34.065Z,99385.47
2023-02-25T00:54:02.221Z,99381.25
2023-02-25T00:56:30.816Z,99371.53
2023-02-25T00:59:00.567Z,99386.16
2023-02-25T01:01:33.351Z,99383.13
2023-02-25T01:04:02.312Z,99382.63
2023-02-25T01:06:31.386Z,99395.09
2023-02-25T01:09:00.278Z,99397.44
2023-02-25T01:11:30.361Z,99401.81
2023-02-25T01:13:59.778Z,99403.84
2023-02-25T01:16:31.641Z,99396.75
2023-02-25T01:19:01.636Z,99398.25
2023-02-25T01:21:31.515Z,99403.50
2023-02-25T01:24:02.540Z,99397.78
2023-02-25T01:26:32.328Z,99392.06
2023-02-25T01:29:00.279Z,99399.44
2023-02-25T01:31:30.300Z,99396.09
2023-02-25T01:33:59.710Z,99394.06
2023-02-25T01:36:28.442Z,99371.72
2023-02-25T01:38:58.248Z,99402.84
2023-02-25T01:41:27.374Z,99394.91
2023-02-25T01:44:07.486Z,99407.38
2023-02-25T01:46:37.176Z,99406.69
2023-02-25T01:49:09.566Z,99409.22
2023-02-25T01:51:38.495Z,99410.41
2023-02-25T01:54:12.097Z,99401.47
2023-02-25T01:56:43.658Z,99416.13
2023-02-25T01:59:12.036Z,99410.91
2023-02-25T02:01:42.082Z,99415.13
2023-02-25T02:04:14.681Z,99420.66
2023-02-25T02:06:45.408Z,99419.00
2023-02-25T02:09:20.537Z,99432.44
2023-02-25T02:11:48.619Z,99433.44
2023-02-25T02:14:19.844Z,99437.13
2023-02-25T02:17:16.915Z,99430.09
2023-02-25T02:20:11.240Z,99433.97
2023-02-25T02:22:49.343Z,99425.38
2023-02-25T02:25:43.317Z,99428.72
2023-02-25T02:28:42.850Z,99442.38
2023-02-25T02:31:25.933Z,99436.81
2023-02-25T02:34:06.216Z,99436.81
2023-02-25T02:36:45.667Z,99430.41
2023-02-25T02:39:20.871Z,99438.16
2023-02-25T02:41:59.751Z,99427.22
2023-02-25T02:44:31.831Z,99424.38
2023-02-25T02:47:05.508Z,99427.72
2023-02-25T02:49:41.775Z,99427.06
2023-02-25T02:52:15.324Z,99426.38
2023-02-25T02:54:50.766Z,99424.72
2023-02-25T02:57:22.861Z,99424.72
2023-02-25T02:59:56.354Z,99391.75
2023-02-25T03:02:32.683Z,99427.41
2023-02-25T03:05:06.677Z,99434.78
2023-02-25T03:07:42.498Z,99432.09
2023-02-25T03:10:17.098Z,99425.88
2023-02-25T03:12:45.189Z,99440.84
2023-02-25T03:15:14.473Z,99445.72
2023-02-25T03:17:48.194Z,99418.28
2023-02-25T03:20:22.018Z,99455.13
2023-02-25T03:22:52.593Z,99455.97
2023-02-25T03:25:24.972Z,99445.53
2023-02-25T03:27:56.212Z,99454.47
2023-02-25T03:30:33.701Z,99457.69
2023-02-25T03:33:10.363Z,99463.72
2023-02-25T03:35:41.450Z,99466.41
2023-02-25T03:38:15.627Z,99473.66
2023-02-25T03:40:44.689Z,99477.72
2023-02-25T03:43:17.447Z,99478.88
2023-02-25T03:45:46.634Z,99479.88
2023-02-25T03:48:19.276Z,99483.41
2023-02-25T03:50:52.803Z,99491.31
2023-02-25T03:53:21.017Z,99495.88
2023-02-25T03:55:53.092Z,99488.81
2023-02-25T03:58:21.425Z,99493.84
2023-02-25T04:00:56.189Z,99499.25
2023-02-25T04:03:27.495Z,99500.41
2023-02-25T04:05:55.721Z,99510.53
2023-02-25T04:08:23.848Z,99509.50
2023-02-25T04:10:52.347Z,99515.91
2023-02-25T04:13:20.977Z,99512.84
2023-02-25T04:15:50.498Z,99525.00
2023-02-25T04:18:18.544Z,99525.00
2023-02-25T04:20:47.957Z,99522.97
2023-02-25T04:23:16.734Z,99530.06
2023-02-25T04:25:45.083Z,99529.19
2023-02-25T04:28:13.270Z,99539.31
2023-02-25T04:30:41.349Z,99538.47
2023-02-25T04:33:11.242Z,99530.38
2023-02-25T04:35:39.283Z,99542.00
2023-02-25T04:38:09.339Z,99547.88
2023-02-25T04:40:38.112Z,99553.78
2023-02-25T04:43:06.218Z,99554.63
2023-02-25T04:45:34.182Z,99554.63
2023-02-25T04:48:02.167Z,99550.09
2023-02-25T04:50:30.095Z,99553.59
2023-02-25T04:53:00.374Z,99553.59
2023-02-25T04:55:30.079Z,99557.31
2023-02-25T04:57:58.249Z,99558.50
2023-02-25T05:00:28.139Z,99558.63
2023-02-25T05:02:58.051Z,99566.06
2023-02-25T05:05:26.013Z,99561.84
2023-02-25T05:07:54.067Z,99559.34
2023-02-25T05:10:22.191Z,99561.31
2023-02-25T05:12:51.543Z,99573.13
2023-02-25T05:15:19.790Z,99580.34
2023-02-25T05:17:47.807Z,99568.72
2023-02-25T05:20:15.935Z,99568.91
2023-02-25T05:22:44.044Z,99581.66
2023-02-25T05:25:12.398Z,99561.31
2023-02-25T05:27:40.404Z,99579.16
2023-02-25T05:30:11.634Z,99581.84
2023-02-25T05:32:40.280Z,99575.63
2023-02-25T05:35:10.264Z,99581.53
2023-02-25T05:37:40.217Z,99589.09
2023-02-25T05:40:10.229Z,99587.25
2023-02-25T05:42:38.487Z,99598.69
2023-02-25T05:45:07.475Z,99593.97
2023-02-25T05:47:37.279Z,99600.06
2023-02-25T05:50:05.742Z,99610.84
2023-02-25T05:52:33.751Z,99625.81
2023-02-25T05:55:02.151Z,99618.41
2023-02-25T05:57:30.373Z,99622.94
2023-02-25T05:59:58.291Z,99633.72
2023-02-25T06:02:26.310Z,99630.88
2023-02-25T06:04:56.265Z,99614.84
2023-02-25T06:07:24.220Z,99631.88
2023-02-25T06:09:52.244Z,99642.78
2023-02-25T06:12:20.177Z,99640.59
2023-02-25T06:14:48.141Z,99645.13
2023-02-25T06:17:16.036Z,99650.53
2023-02-25T06:19:43.943Z,99648.00
2023-02-25T06:22:13.415Z,99632.97
2023-02-25T06:24:41.796Z,99661.66
2023-02-25T06:27:09.743Z,99660.13
2023-02-25T06:29:41.991Z,99666.31
2023-02-25T06:32:10.599Z,99671.88
2023-02-25T06:34:38.796Z,99669.03
2023-02-25T06:37:07.537Z,99677.09
2023-02-25T06:39:36.883Z,99671.56
2023-02-25T06:42:05.321Z,99681.31
2023-02-25T06:44:33.334Z,99682.34
2023-02-25T06:47:01.370Z,99682.34
2023-02-25T06:49:30.902Z,99684.72
2023-02-25T06:51:58.878Z,99684.53
2023-02-25T06:54:27.955Z,99691.75
2023-02-25T06:56:57.311Z,99697.00
2023-02-25T06:59:25.352Z,99696.16
2023-02-25T07:01:53.549Z,99705.09
2023-02-25T07:04:21.508Z,99709.44
2023-02-25T07:06:49.430Z,99702.22
2023-02-25T07:09:17.370Z,99713.16
2023-02-25T07:11:45.436Z,99721.72
2023-02-25T07:14:16.409Z,99727.94
2023-02-25T07:16:44.423Z,99718.19
2023-02-25T07:19:15.374Z,99720.19
2023-02-25T07:21:44.259Z,99720.19
2023-02-25T07:24:12.781Z,99721.22
2023-02-25T07:26:40.695Z,99728.44
2023-02-25T07:29:08.611Z,99731.31
2023-02-25T07:31:38.129Z,99736.69
2023-02-25T07:34:06.215Z,99732.13
2023-02-25T07:36:35.907Z,99697.38
2023-02-25T07:39:04.752Z,99724.19
2023-02-25T07:41:32.803Z,99746.13
2023-02-25T07:44:04.036Z,99753.19
2023-02-25T07:46:32.446Z,99752.50
2023-02-25T07:49:02.073Z,99762.28
2023-02-25T07:51:30.440Z,99761.28
2023-02-25T07:53:59.305Z,99755.72
2023-02-25T07:56:29.328Z,99763.63
2023-02-25T07:58:57.529Z,99776.41
2023-02-25T08:01:27.588Z,99769.19
2023-02-25T08:03:58.327Z,99770.03
2023-02-25T08:06:28.470Z,99741.31
2023-02-25T08:08:56.515Z,99780.47
2023-02-25T08:11:26.294Z,99786.53
2023-02-25T08:13:54.571Z,99802.84
2023-02-25T08:16:23.572Z,99798.31
2023-02-25T08:18:53.012Z,99801.69
2023-02-25T08:21:23.483Z,99806.06
2023-02-25T08:23:53.657Z,99808.63
2023-02-25T08:26:23.892Z,99811.31
2023-02-25T08:28:52.937Z,99805.94
2023-02-25T08:31:22.377Z,99812.13
2023-02-25T08:33:52.990Z,99808.75
2023-02-25T08:36:23.305Z,99812.13
2023-02-25T08:38:53.148Z,99825.47
2023-02-25T08:41:23.170Z,99820.94
2023-02-25T08:43:54.892Z,99825.28
2023-02-25T08:46:24.118Z,99829.50
2023-02-25T08:48:53.539Z,99825.97
2023-02-25T08:51:23.571Z,99827.13
2023-02-25T08:53:53.222Z,99832.50
2023-02-25T08:56:21.162Z,99821.91
2023-02-25T08:58:49.181Z,99834.38
2023-02-25T09:01:18.563Z,99835.22
2023-02-25T09:03:52.254Z,99845.16
2023-02-25T09:06:21.107Z,99850.56
2023-02-25T09:08:49.411Z,99847.16
2023-02-25T09:11:19.868Z,99852.22
2023-02-25T09:13:47.851Z,99860.16
2023-02-25T09:16:17.599Z,99854.59
2023-02-25T09:18:46.079Z,99862.69
2023-02-25T09:21:15.254Z,99861.69
2023-02-25T09:23:43.901Z,99868.91
2023-02-25T09:26:12.513Z,99869.75
2023-02-25T09:28:41.977Z,99874.81
2023-02-25T09:31:10.286Z,99874.81
2023-02-25T09:33:39.275Z,99882.06
2023-02-25T09:36:08.992Z,99892.84
2023-02-25T09:38:37.116Z,99892.00
2023-02-25T09:41:17.084Z,99900.75
2023-02-25T09:43:47.511Z,99906.13
2023-02-25T09:46:19.948Z,99893.53
2023-02-25T09:48:56.304Z,99911.34
2023-02-25T09:51:32.514Z,99907.13
2023-02-25T09:54:12.010Z,99906.44
2023-02-25T09:56:40.443Z,99922.78
2023-02-25T09:59:15.546Z,99921.94
2023-02-25T10:01:48.958Z,99926.34
2023-02-25T10:04:26.099Z,99929.72
2023-02-25T10:06:56.080Z,99927.63
2023-02-25T10:09:35.404Z,99933.75
2023-02-25T10:12:15.250Z,99932.75
2023-02-25T10:15:01.300Z,99932.44
2023-02-25T10:17:43.394Z,99946.06
2023-02-25T10:20:35.193Z,99947.59
2023-02-25T10:23:13.322Z,99946.06
2023-02-25T10:25:45.348Z,99951.44
2023-02-25T10:28:17.285Z,99965.63
2023-02-25T10:30:54.038Z,99962.09
2023-02-25T10:33:25.422Z,99957.56
2023-02-25T10:35:58.742Z,99963.75
2023-02-25T10:38:26.864Z,99969.16
2023-02-25T10:40:57.953Z,99970.00
2023-02-25T10:43:27.720Z,99971.03
2023-02-25T10:46:02.524Z,99963.75
2023-02-25T10:48:32.136Z,99974.41
2023-02-25T10:51:07.354Z,99974.22
2023-02-25T10:53:35.466Z,99985.00
2023-02-25T10:56:03.969Z,99991.06
2023-02-25T10:58:36.538Z,99984.50
2023-02-25T11:01:10.618Z,99985.06
2023-02-25T11:03:47.517Z,100005.63
2023-02-25T11:06:23.378Z,99995.16
2023-02-25T11:08:52.314Z,99998.00
2023-02-25T11:11:22.789Z,99993.97
2023-02-25T11:14:02.930Z,100004.31
2023-02-25T11:16:36.334Z,100009.63
2023-02-25T11:19:15.107Z,100019.72
2023-02-25T11:21:43.964Z,100000.97
2023-02-25T11:24:16.478Z,100028.78
2023-02-25T11:26:47.254Z,100022.25
2023-02-25T11:29:19.211Z,100024.94
2023-02-25T11:31:52.506Z,100033.88
2023-02-25T11:34:24.195Z,100036.88
2023-02-25T11:36:52.647Z,100050.69
2023-02-25T11:39:23.374Z,100047.13
2023-02-25T11:41:53.170Z,100051.69
2023-02-25T11:44:24.904Z,100053.69
2023-02-25T11:47:00.954Z,100060.06
2023-02-25T11:49:48.752Z,100064.22
2023-02-25T11:52:26.500Z,100065.31
2023-02-25T11:55:08.949Z,100068.53
2023-02-25T11:57:46.932Z,100072.25
2023-02-25T12:00:25.544Z,100079.84
2023-02-25T12:03:13.531Z,100075.44
2023-02-25T12:05:57.154Z,100082.69
2023-02-25T12:08:46.347Z,100074.47
2023-02-25T12:11:47.705Z,100072.63
2023-02-25T12:14:59.110Z,100093.16
2023-02-25T12:17:51.220Z,100090.47
2023-02-25T12:20:56.201Z,100085.75
2023-02-25T12:24:08.716Z,100089.16
2023-02-25T12:26:50.968Z,100097.25
2023-02-25T12:29:39.619Z,100102.34
2023-02-25T12:32:24.010Z,100110.09
2023-02-25T12:35:26.916Z,100111.13
2023-02-25T12:38:25.387Z,100124.59
2023-02-25T12:41:16.414Z,100109.00
2023-02-25T12:43:50.857Z,100117.09
2023-02-25T12:46:43.385Z,100118.94
2023-02-25T12:49:52.753Z,100127.88
2023-02-25T12:52:35.378Z,100123.34
2023-02-25T12:55:37.971Z,100137.38
2023-02-25T12:58:27.823Z,100129.03
2023-02-25T13:01:30.625Z,100139.50
2023-02-25T13:04:15.801Z,100146.34
2023-02-25T13:07:15.152Z,100188.13
2023-02-25T13:10:02.359Z,100160.66
2023-02-25T13:12:49.252Z,100152.72
2023-02-25T13:15:21.801Z,100169.91
2023-02-25T13:18:06.994Z,100153.56
2023-02-25T13:20:54.140Z,100191.63
2023-02-25T13:23:35.509Z,100182.00
2023-02-25T13:26:18.956Z,100194.13
2023-02-25T13:29:04.227Z,100190.56
2023-02-25T13:31:43.374Z,100204.03
2023-02-25T13:34:24.181Z,100211.13
2023-02-25T13:37:18.464Z,100224.94
2023-02-25T13:39:57.595Z,100180.56
2023-02-25T13:42:42.548Z,100224.13
2023-02-25T13:45:44.477Z,100218.53
2023-02-25T13:48:31.334Z,100211.31
2023-02-25T13:51:25.665Z,100242.50
2023-02-25T13:54:07.806Z,100246.75
2023-02-25T13:57:00.176Z,100261.53
2023-02-25T14:00:07.233Z,100264.69
2023-02-25T14:02:57.310Z,100254.50
2023-02-25T14:05:47.408Z,100273.81
2023-02-25T14:08:29.710Z,100266.72
2023-02-25T14:11:12.328Z,100200.91
2023-02-25T14:14:03.225Z,100263.63
2023-02-25T14:16:44.874Z,100276.41
2023-02-25T14:19:36.073Z,100282.66
2023-02-25T14:22:22.311Z,100290.75
2023-02-25T14:25:02.799Z,100291.56
2023-02-25T14:27:42.905Z,100270.25
2023-02-25T14:30:22.703Z,100295.41
2023-02-25T14:33:13.608Z,100303.34
2023-02-25T14:35:57.688Z,100297.25
2023-02-25T14:38:38.270Z,100291.72
2023-02-25T14:41:22.884Z,100286.63
2023-02-25T14:43:54.119Z,100307.59
2023-02-25T14:46:32.963Z,100312.22
2023-02-25T14:49:08.645Z,100333.19
2023-02-25T14:52:12.595Z,100314.56
2023-02-25T14:55:06.356Z,100322.75
2023-02-25T14:58:09.933Z,100327.72
2023-02-25T15:01:11.301Z,100337.22
2023-02-25T15:03:59.041Z,100341.44
2023-02-25T15:06:46.059Z,100335.19
2023-02-25T15:09:32.654Z,100350.47
2023-02-25T15:12:17.939Z,100358.63
2023-02-25T15:15:22.515Z,100361.72
2023-02-25T15:18:14.204Z,100370.22
2023-02-25T15:20:45.764Z,100374.44
2023-02-25T15:23:16.446Z,100368.75
2023-02-25T15:25:50.611Z,100385.31
2023-02-25T15:28:44.542Z,100393.28
2023-02-25T15:31:28.661Z,100395.69
2023-02-25T15:34:33.970Z,100371.22
2023-02-25T15:37:28.163Z,100408.00
2023-02-25T15:39:57.755Z,100380.84
2023-02-25T15:42:46.422Z,100399.16
2023-02-25T15:45:38.346Z,100416.88
2023-02-25T15:48:35.538Z,100422.97
2023-02-25T15:51:06.385Z,100426.34
2023-02-25T15:53:41.914Z,100431.31
2023-02-25T15:56:57.777Z,100442.97
2023-02-25T15:59:43.204Z,100448.91
2023-02-25T16:02:35.620Z,100456.53
2023-02-25T16:05:06.702Z,100467.88
2023-02-25T16:07:38.040Z,100463.94
2023-02-25T16:10:17.860Z,100447.50
2023-02-25T16:12:49.555Z,100481.16
2023-02-25T16:15:26.207Z,100494.03
2023-02-25T16:17:58.668Z,100496.28
2023-02-25T16:20:30.453Z,100494.81
2023-02-25T16:23:00.626Z,100498.91
2023-02-25T16:25:39.812Z,100504.84
2023-02-25T16:28:19.676Z,100504.53
2023-02-25T16:30:55.951Z,100507.59
2023-02-25T16:33:31.918Z,100511.84
2023-02-25T16:36:07.917Z,100515.28
2023-02-25T16:38:44.114Z,100520.50
2023-02-25T16:41:13.790Z,100530.44
2023-02-25T16:43:46.492Z,100526.63
2023-02-25T16:46:17.865Z,100539.13
2023-02-25T16:48:52.312Z,100547.91
2023-02-25T16:51:25.663Z,100548.94
2023-02-25T16:53:57.960Z,100549.09
2023-02-25T16:56:28.853Z,100538.84
2023-02-25T16:59:07.805Z,100551.06
2023-02-25T17:01:37.551Z,100561.31
2023-02-25T17:04:17.150Z,100567.75
2023-02-25T17:06:45.229Z,100563.50
2023-02-25T17:09:27.865Z,100570.56
2023-02-25T17:11:58.058Z,100563.41
2023-02-25T17:14:26.510Z,100575.59
2023-02-25T17:16:54.738Z,100540.47
2023-02-25T17:19:25.305Z,100561.47
2023-02-25T17:21:56.165Z,100582.69
2023-02-25T17:24:28.480Z,100584.38
2023-02-25T17:26:56.933Z,100590.78
2023-02-25T17:29:34.964Z,100562.75
2023-02-25T17:32:14.217Z,100610.69
2023-02-25T17:34:44.477Z,100625.91
2023-02-25T17:37:14.100Z,100631.59
2023-02-25T17:39:44.262Z,100628.03
2023-02-25T17:42:31.172Z,100612.03
2023-02-25T17:45:00.894Z,100625.00
2023-02-25T17:47:31.850Z,100580.84
2023-02-25T17:50:14.380Z,100640.47
2023-02-25T17:52:42.571Z,100648.16
2023-02-25T17:55:24.379Z,100648.47
2023-02-25T17:57:54.951Z,100648.63
2023-02-25T18:00:26.156Z,100655.88
2023-02-25T18:03:13.608Z,100646.91
2023-02-25T18:05:51.637Z,100662.41
2023-02-25T18:08:22.110Z,100661.84
2023-02-25T18:10:55.232Z,100681.91
2023-02-25T18:13:28.937Z,100678.34
2023-02-25T18:16:17.483Z,100682.34
2023-02-25T18:18:51.266Z,100679.94
2023-02-25T18:21:21.349Z,100681.22
2023-02-25T18:23:51.787Z,100679.66
2023-02-25T18:26:23.997Z,100688.22
2023-02-25T18:28:53.021Z,100679.25
2023-02-25T18:31:22.402Z,100704.25
2023-02-25T18:33:50.955Z,100707.38
2023-02-25T18:36:25.746Z,100705.25
2023-02-25T18:38:57.947Z,100716.34
2023-02-25T18:41:25.884Z,100714.09
2023-02-25T18:43:54.694Z,100725.47
2023-02-25T18:46:23.100Z,100716.94
2023-02-25T18:48:51.213Z,100719.94
2023-02-25T18:51:19.275Z,100717.38
2023-02-25T18:53:49.715Z,100720.06
2023-02-25T18:56:18.587Z,100730.44
2023-02-25T18:58:46.510Z,100726.19
2023-02-25T19:01:21.880Z,100726.88
2023-02-25T19:03:51.191Z,100727.31
2023-02-25T19:06:19.437Z,100732.00
2023-02-25T19:08:47.391Z,100738.38
2023-02-25T19:11:21.801Z,100734.13
2023-02-25T19:13:50.061Z,100731.88
2023-02-25T19:16:19.190Z,100736.97
2023-02-25T19:18:48.248Z,100719.38
2023-02-25T19:21:20.288Z,100742.50
2023-02-25T19:23:51.638Z,100727.19
2023-02-25T19:26:22.204Z,100741.78
2023-02-25T19:28:50.294Z,100748.16
2023-02-25T19:31:18.881Z,100742.22
2023-02-25T19:33:47.034Z,100746.06
2023-02-25T19:36:14.978Z,100750.75
2023-02-25T19:38:42.953Z,100758.94
2023-02-25T19:41:13.282Z,100752.41
2023-02-25T19:43:42.695Z,100757.50
2023-02-25T19:46:11.005Z,100756.22
2023-02-25T19:48:39.035Z,100767.00
2023-02-25T19:51:08.375Z,100775.22
2023-02-25T19:53:37.057Z,100771.81
2023-02-25T19:56:07.346Z,100775.50
2023-02-25T19:58:35.351Z,100773.09
2023-02-25T20:01:06.454Z,100775.63
2023-02-25T20:03:34.779Z,100773.09
2023-02-25T20:06:07.805Z,100780.16
2023-02-25T20:08:37.184Z,100790.13
2023-02-25T20:11:09.174Z,100790.25
2023-02-25T20:13:38.514Z,100786.13
2023-02-25T20:16:09.352Z,100789.66
2023-02-25T20:18:37.484Z,100796.19
2023-02-25T20:21:05.864Z,100789.97
2023-02-25T20:23:33.899Z,100771.03
2023-02-25T20:26:06.565Z,100803.44
2023-02-25T20:28:34.805Z,100800.84
2023-02-25T20:31:08.929Z,100799.03
2023-02-25T20:33:37.610Z,100808.22
2023-02-25T20:36:18.238Z,100825.09
2023-02-25T20:38:58.611Z,100815.19
2023-02-25T20:41:27.164Z,100820.72
2023-02-25T20:43:55.373Z,100818.03
2023-02-25T20:46:28.234Z,100819.97
2023-02-25T20:48:57.018Z,100811.19
2023-02-25T20:51:25.618Z,100815.59
2023-02-25T20:53:54.230Z,100821.13
2023-02-25T20:56:24.978Z,100818.31
2023-02-25T20:58:53.480Z,100825.69
2023-02-25T21:01:21.563Z,100823.97
2023-02-25T21:03:51.129Z,100831.06
2023-02-25T21:06:19.859Z,100827.34
2023-02-25T21:08:48.036Z,100832.75
2023-02-25T21:11:16.060Z,100832.63
2023-02-25T21:13:45.586Z,100833.47
2023-02-25T21:16:14.376Z,100831.06
2023-02-25T21:18:43.757Z,100839.59
2023-02-25T21:21:14.855Z,100803.63
2023-02-25T21:23:43.191Z,100834.91
2023-02-25T21:26:12.462Z,100844.56
2023-02-25T21:28:42.129Z,100839.28
2023-02-25T21:31:12.453Z,100842.72
2023-02-25T21:33:41.682Z,100845.41
2023-02-25T21:36:11.682Z,100846.97
2023-02-25T21:38:41.124Z,100850.53
2023-02-25T21:41:10.725Z,100837.88
2023-02-25T21:43:39.049Z,100847.84
2023-02-25T21:46:10.886Z,100855.78
2023-02-25T21:48:39.607Z,100851.09
2023-02-25T21:51:08.622Z,100846.81
2023-02-25T21:53:36.622Z,100856.63
2023-02-25T21:56:12.422Z,100854.91
2023-02-25T21:58:40.817Z,100859.59
2023-02-25T22:01:13.965Z,100865.97
2023-02-25T22:03:42.013Z,100861.59
2023-02-25T22:06:10.530Z,100868.81
2023-02-25T22:08:39.579Z,100865.09
2023-02-25T22:11:14.193Z,100866.97
2023-02-25T22:13:43.085Z,100842.50
2023-02-25T22:16:12.035Z,100866.97
2023-02-25T22:18:40.302Z,100865.97
2023-02-25T22:21:11.731Z,100866.81
2023-02-25T22:23:40.765Z,100874.31
2023-02-25T22:26:10.010Z,100869.94
2023-02-25T22:28:39.961Z,100882.53
2023-02-25T22:31:11.242Z,100888.91
2023-02-25T22:33:39.793Z,100889.22
2023-02-25T22:36:09.076Z,100899.84
2023-02-25T22:38:39.573Z,100908.78
2023-02-25T22:41:13.464Z,100909.75
2023-02-25T22:43:42.841Z,100910.75
2023-02-25T22:46:13.019Z,100914.69
2023-02-25T22:48:42.761Z,100913.56
2023-02-25T22:51:11.839Z,100919.97
2023-02-25T22:53:40.983Z,100910.44
2023-02-25T22:56:11.339Z,100920.94
2023-02-25T22:58:40.690Z,100921.91
2023-02-25T23:01:10.616Z,100930.75
2023-02-25T23:03:39.535Z,100926.34
2023-02-25T23:06:08.333Z,100920.09
2023-02-25T23:08:36.658Z,100893.91
2023-02-25T23:11:13.265Z,100927.75
2023-02-25T23:13:46.075Z,100934.16
2023-02-25T23:16:16.722Z,100929.75
2023-02-25T23:18:45.076Z,100927.19
2023-02-25T23:21:18.809Z,100925.22
2023-02-25T23:23:48.215Z,100924.34
2023-02-25T23:26:18.542Z,100933.13
2023-02-25T23:28:47.346Z,100936.44
2023-02-25T23:31:25.113Z,100936.28
2023-02-25T23:33:56.088Z,100929.75
2023-02-25T23:36:24.730Z,100931.03
2023-02-25T23:38:54.451Z,100909.28
2023-02-25T23:41:22.596Z,100948.78
2023-02-25T23:43:53.201Z,100952.19
2023-02-25T23:46:23.388Z,100953.19
2023-02-25T23:48:55.545Z,100963.13
2023-02-25T23:51:23.960Z,100959.41
2023-02-25T23:53:54.642Z,100966.41
2023-02-25T23:56:23.885Z,100961.72
2023-02-25T23:58:53.746Z,100957.03
